createdAt,value
2017-08-08T00:00:34.631Z,5.97
2017-08-08T00:05:37.824Z,6.10
2017-08-08T00:10:41.781Z,5.97
2017-08-08T00:15:44.956Z,6.57
2017-08-08T00:20:48.130Z,6.97
2017-08-08T00:25:51.318Z,5.50
2017-08-08T00:30:54.574Z,5.60
2017-08-08T00:35:58.520Z,6.80
2017-08-08T00:41:01.703Z,6.30
2017-08-08T00:46:05.681Z,6.07
2017-08-08T00:51:08.862Z,6.70
2017-08-08T00:56:12.122Z,6.37
2017-08-08T01:01:15.457Z,6.37
2017-08-08T01:06:19.393Z,6.77
2017-08-08T01:11:22.569Z,6.20
2017-08-08T01:16:26.517Z,6.03
2017-08-08T01:21:29.710Z,6.37
2017-08-08T01:26:32.888Z,5.87
2017-08-08T01:31:36.078Z,6.10
2017-08-08T01:36:39.317Z,6.50
2017-08-08T01:41:43.245Z,7.10
2017-08-08T01:46:47.222Z,7.00
2017-08-08T01:51:50.398Z,7.10
2017-08-08T01:56:53.565Z,6.87
2017-08-08T02:01:56.728Z,7.00
2017-08-08T02:06:59.911Z,6.97
2017-08-08T02:12:03.098Z,6.70
2017-08-08T02:17:06.495Z,6.93
2017-08-08T02:22:09.639Z,6.90
2017-08-08T02:27:12.796Z,6.23
2017-08-08T02:32:15.966Z,7.50
2017-08-08T02:37:19.139Z,7.23
2017-08-08T02:42:23.085Z,7.53
2017-08-08T02:47:26.286Z,7.30
2017-08-08T02:52:29.486Z,7.43
2017-08-08T02:57:32.702Z,7.30
2017-08-08T03:02:36.661Z,7.93
2017-08-08T03:07:39.977Z,6.63
2017-08-08T03:12:43.182Z,6.67
2017-08-08T03:17:46.350Z,6.67
2017-08-08T03:22:49.514Z,6.60
2017-08-08T03:27:52.713Z,6.83
2017-08-08T03:32:55.871Z,6.90
2017-08-08T03:37:59.235Z,6.87
2017-08-08T03:43:02.453Z,6.40
2017-08-08T03:48:05.637Z,6.87
2017-08-08T03:53:08.837Z,8.00
2017-08-08T03:58:12.009Z,7.20
2017-08-08T04:03:15.196Z,7.20
2017-08-08T04:08:18.377Z,7.00
2017-08-08T04:13:21.566Z,7.30
2017-08-08T04:18:24.812Z,6.93
2017-08-08T04:23:28.758Z,7.27
2017-08-08T04:28:31.937Z,7.33
2017-08-08T04:33:35.866Z,7.73
2017-08-08T04:38:39.813Z,7.20
2017-08-08T04:43:43.024Z,7.50
2017-08-08T04:48:46.222Z,6.83
2017-08-08T04:53:49.406Z,6.93
2017-08-08T04:58:53.396Z,6.77
2017-08-08T05:03:56.609Z,7.50
2017-08-08T05:08:59.844Z,7.20
2017-08-08T05:14:03.781Z,7.30
2017-08-08T05:19:06.982Z,7.60
2017-08-08T05:24:10.181Z,7.17
2017-08-08T05:29:14.133Z,7.17
2017-08-08T05:34:17.314Z,6.80
2017-08-08T05:39:21.263Z,7.47
2017-08-08T05:44:24.450Z,8.10
2017-08-08T05:49:28.420Z,6.63
2017-08-08T05:54:31.631Z,7.63
2017-08-08T05:59:34.810Z,6.97
2017-08-08T06:04:37.982Z,6.90
2017-08-08T06:09:41.948Z,7.73
2017-08-08T06:14:45.236Z,8.03
2017-08-08T06:19:49.177Z,7.47
2017-08-08T06:24:52.368Z,6.90
2017-08-08T06:29:56.333Z,7.40
2017-08-08T06:34:59.513Z,7.57
2017-08-08T06:40:02.693Z,6.93
2017-08-08T06:45:06.679Z,6.90
2017-08-08T06:50:09.940Z,7.20
2017-08-08T06:55:13.870Z,9.17
2017-08-08T07:00:17.045Z,9.30
2017-08-08T07:05:20.978Z,7.90
2017-08-08T07:10:24.947Z,8.30
2017-08-08T07:15:28.114Z,8.37
2017-08-08T07:20:32.056Z,8.33
2017-08-08T07:25:35.253Z,8.10
2017-08-08T07:30:38.429Z,9.17
2017-08-08T07:35:41.598Z,8.50
2017-08-08T07:40:44.792Z,9.57
2017-08-08T07:45:47.981Z,8.40
2017-08-08T07:50:51.180Z,9.60
2017-08-08T07:55:54.362Z,9.07
2017-08-08T08:00:57.552Z,8.60
2017-08-08T08:06:00.751Z,9.77
2017-08-08T08:11:03.937Z,9.53
2017-08-08T08:16:07.110Z,8.63
2017-08-08T08:21:10.294Z,8.40
2017-08-08T08:26:13.485Z,9.03
2017-08-08T08:31:16.678Z,9.20
2017-08-08T08:36:19.877Z,8.73
2017-08-08T08:41:23.049Z,9.33
2017-08-08T08:46:26.982Z,8.63
2017-08-08T08:51:30.163Z,9.80
2017-08-08T08:56:34.137Z,9.90
2017-08-08T09:01:37.319Z,8.07
2017-08-08T09:06:40.492Z,9.10
2017-08-08T09:11:44.430Z,8.87
2017-08-08T09:16:48.373Z,9.27
2017-08-08T09:21:51.569Z,8.70
2017-08-08T09:26:55.494Z,8.53
2017-08-08T09:31:58.696Z,8.40
2017-08-08T09:37:01.920Z,8.73
2017-08-08T09:42:05.094Z,8.23
2017-08-08T09:47:09.057Z,8.63
2017-08-08T09:52:12.230Z,9.60
2017-08-08T09:57:15.406Z,10.23
2017-08-08T10:02:18.609Z,9.83
2017-08-08T10:07:21.774Z,10.00
2017-08-08T10:12:24.972Z,10.13
2017-08-08T10:17:28.411Z,10.43
2017-08-08T10:22:31.630Z,11.30
2017-08-08T10:27:34.786Z,11.83
2017-08-08T10:32:38.750Z,10.40
2017-08-08T10:37:41.940Z,10.80
2017-08-08T10:42:45.235Z,10.93
2017-08-08T10:47:49.187Z,10.67
2017-08-08T10:52:52.372Z,10.43
2017-08-08T10:57:55.545Z,9.80
2017-08-08T11:02:58.761Z,10.20
2017-08-08T11:08:01.943Z,9.20
2017-08-08T11:13:05.148Z,9.40
2017-08-08T11:18:08.341Z,7.83
2017-08-08T11:23:11.546Z,8.50
2017-08-08T11:28:14.719Z,8.50
2017-08-08T11:33:17.888Z,7.57
2017-08-08T11:38:21.085Z,8.90
2017-08-08T11:43:24.290Z,18.30
2017-08-08T11:48:27.462Z,28.80
2017-08-08T11:53:30.642Z,23.80
2017-08-08T11:58:33.829Z,19.33
2017-08-08T12:03:37.786Z,14.70
2017-08-08T12:08:40.990Z,13.50
2017-08-08T12:13:44.182Z,11.60
2017-08-08T12:18:48.145Z,12.70
2017-08-08T12:23:51.335Z,10.90
2017-08-08T12:28:54.513Z,10.60
2017-08-08T12:33:57.745Z,11.10
2017-08-08T12:39:00.931Z,10.63
2017-08-08T12:44:04.127Z,10.00
2017-08-08T12:49:08.165Z,8.90
2017-08-08T12:54:12.130Z,10.10
2017-08-08T12:59:15.315Z,10.00
2017-08-08T13:04:18.502Z,9.47
2017-08-08T13:09:21.690Z,8.30
2017-08-08T13:14:25.647Z,7.27
2017-08-08T13:19:28.850Z,7.20
2017-08-08T13:24:32.039Z,7.20
2017-08-08T13:29:35.957Z,7.10
2017-08-08T13:34:39.883Z,7.00
2017-08-08T13:39:43.806Z,5.67
2017-08-08T13:44:47.001Z,5.70
2017-08-08T13:49:50.955Z,7.30
2017-08-08T13:54:54.257Z,7.63
2017-08-08T13:59:58.208Z,8.07
2017-08-08T14:05:01.390Z,9.30
2017-08-08T14:10:04.567Z,8.77
2017-08-08T14:15:07.799Z,8.20
2017-08-08T14:20:10.981Z,8.67
2017-08-08T14:25:14.165Z,9.37
2017-08-08T14:30:17.351Z,8.63
2017-08-08T14:35:20.520Z,8.07
2017-08-08T14:40:24.495Z,6.93
2017-08-08T14:45:27.682Z,6.47
2017-08-08T14:50:30.851Z,5.90
2017-08-08T14:55:34.823Z,4.60
2017-08-08T15:00:38.049Z,4.60
2017-08-08T15:05:41.419Z,4.30
2017-08-08T15:10:44.606Z,3.97
2017-08-08T15:15:47.797Z,3.40
2017-08-08T15:20:51.784Z,3.80
2017-08-08T15:25:54.990Z,3.33
2017-08-08T15:30:58.186Z,3.37
2017-08-08T15:36:01.546Z,3.60
2017-08-08T15:41:04.734Z,3.20
2017-08-08T15:46:07.929Z,3.47
2017-08-08T15:51:11.159Z,3.77
2017-08-08T15:56:14.369Z,2.60
2017-08-08T16:01:17.575Z,2.57
2017-08-08T16:06:20.818Z,3.00
2017-08-08T16:11:24.015Z,3.00
2017-08-08T16:16:27.975Z,3.10
2017-08-08T16:21:31.184Z,2.63
2017-08-08T16:26:34.416Z,3.53
2017-08-08T16:31:37.595Z,3.20
2017-08-08T16:36:40.797Z,2.20
2017-08-08T16:41:43.986Z,2.40
2017-08-08T16:46:47.149Z,2.60
2017-08-08T16:51:50.354Z,2.40
2017-08-08T16:56:53.555Z,2.80
2017-08-08T17:01:56.801Z,2.73
2017-08-08T17:06:59.973Z,2.67
2017-08-08T17:12:03.216Z,2.87
2017-08-08T17:17:07.154Z,2.50
2017-08-08T17:22:10.346Z,3.03
2017-08-08T17:27:13.541Z,2.83
2017-08-08T17:32:17.575Z,2.30
2017-08-08T17:37:21.543Z,3.10
2017-08-08T17:42:24.767Z,2.53
2017-08-08T17:47:28.038Z,3.70
2017-08-08T17:52:31.239Z,5.47
2017-08-08T17:57:34.426Z,5.53
2017-08-08T18:02:38.381Z,4.07
2017-08-08T18:07:41.702Z,5.70
2017-08-08T18:12:44.887Z,5.10
2017-08-08T18:17:48.083Z,4.50
2017-08-08T18:22:51.294Z,7.20
2017-08-08T18:27:54.504Z,4.27
2017-08-08T18:32:57.676Z,4.60
2017-08-08T18:38:00.903Z,4.47
2017-08-08T18:43:04.110Z,4.30
2017-08-08T18:48:09.490Z,4.50
2017-08-08T18:53:12.747Z,4.00
2017-08-08T18:58:16.016Z,4.63
2017-08-08T19:03:19.187Z,4.00
2017-08-08T19:08:22.405Z,4.17
2017-08-08T19:13:25.786Z,3.70
2017-08-08T19:18:29.027Z,3.33
2017-08-08T19:23:32.225Z,3.50
2017-08-08T19:28:35.489Z,3.80
2017-08-08T19:33:38.713Z,3.97
2017-08-08T19:38:41.949Z,4.07
2017-08-08T19:43:45.196Z,4.50
2017-08-08T19:48:48.428Z,4.47
2017-08-08T19:53:51.657Z,5.00
2017-08-08T19:58:55.643Z,4.33
2017-08-08T20:03:58.899Z,4.57
2017-08-08T20:09:04.070Z,5.50
2017-08-08T20:14:07.298Z,4.60
2017-08-08T20:19:10.541Z,4.90
2017-08-08T20:24:13.766Z,4.53
2017-08-08T20:29:17.741Z,4.10
2017-08-08T20:34:20.988Z,5.03
2017-08-08T20:39:24.229Z,3.80
2017-08-08T20:44:27.422Z,4.20
2017-08-08T20:49:31.300Z,4.97
2017-08-08T20:54:34.516Z,5.00
2017-08-08T20:59:37.717Z,3.60
2017-08-08T21:04:40.946Z,4.10
2017-08-08T21:09:44.174Z,3.80
2017-08-08T21:14:48.211Z,4.43
2017-08-08T21:19:51.505Z,4.23
2017-08-08T21:24:55.453Z,4.00
2017-08-08T21:29:58.696Z,4.67
2017-08-08T21:35:01.907Z,4.60
2017-08-08T21:40:05.144Z,4.90
2017-08-08T21:45:08.282Z,4.70
2017-08-08T21:50:11.462Z,5.43
2017-08-08T21:55:15.393Z,4.70
2017-08-08T22:00:18.551Z,5.50
2017-08-08T22:05:21.749Z,4.80
2017-08-08T22:10:24.921Z,4.57
2017-08-08T22:15:28.096Z,4.20
2017-08-08T22:20:31.282Z,4.30
2017-08-08T22:25:34.572Z,5.17
2017-08-08T22:30:37.777Z,4.90
2017-08-08T22:35:40.952Z,4.87
2017-08-08T22:40:44.144Z,4.80
2017-08-08T22:45:48.094Z,5.23
2017-08-08T22:50:51.283Z,5.00
2017-08-08T22:55:55.252Z,4.60
2017-08-08T23:00:58.413Z,4.53
2017-08-08T23:06:01.688Z,4.50
2017-08-08T23:11:04.871Z,4.27
2017-08-08T23:16:08.064Z,4.47
2017-08-08T23:21:11.275Z,5.40
2017-08-08T23:26:14.453Z,3.93
2017-08-08T23:31:18.416Z,4.10
2017-08-08T23:36:21.577Z,3.77
2017-08-08T23:41:24.767Z,3.00
2017-08-08T23:46:27.946Z,3.20
2017-08-08T23:51:31.365Z,2.53
2017-08-08T23:56:34.561Z,2.67
